Time;durP1;ratioP1;P1;durP2;ratioP2;P2;SDS_P1;SDS_P2;PMS_P1;PMS_P2;Temp;Humidity;BMP_temperature;BMP_pressure;BME280_temperature;BME280_humidity;BME280_pressure;Samples;Min_cycle;Max_cycle;Signal;HPM_P1;HPM_P2
2021/01/23 00:01:52;;;;;;;137.00;15.93;;;;;;;3.57;90.21;100666.45;1749687;81;20983;-32
2021/01/23 00:04:20;;;;;;;102.12;13.93;;;;;;;3.58;90.12;100660.89;1749783;82;21006;-32
2021/01/23 00:06:48;;;;;;;87.47;13.28;;;;;;;3.55;90.06;100660.45;1749760;82;21002;-33
2021/01/23 00:09:15;;;;;;;178.72;16.97;;;;;;;3.56;90.10;100653.20;1749793;82;20967;-33
2021/01/23 00:11:44;;;;;;;119.22;14.45;;;;;;;3.58;89.96;100645.12;1749748;82;22352;-34
2021/01/23 00:14:12;;;;;;;103.05;14.85;;;;;;;3.58;89.96;100645.12;1749674;81;21050;-34
2021/01/23 00:16:42;;;;;;;231.00;16.40;;;;;;;3.58;89.97;100642.97;1749791;82;20983;-33
2021/01/23 00:19:10;;;;;;;148.60;15.03;;;;;;;3.59;89.87;100643.41;1749694;82;21055;-33
2021/01/23 00:21:39;;;;;;;106.05;13.32;;;;;;;3.59;89.77;100628.92;1719322;82;20923;-34
2021/01/23 00:24:08;;;;;;;81.20;11.85;;;;;;;3.56;89.75;100640.81;1749687;81;21209;-33
2021/01/23 00:26:37;;;;;;;131.45;16.07;;;;;;;3.52;89.79;100636.50;1749757;82;20907;-33
2021/01/23 00:29:05;;;;;;;98.22;13.18;;;;;;;3.55;89.94;100639.09;1749693;81;20927;-32
2021/01/23 00:31:34;;;;;;;96.20;12.93;;;;;;;3.55;89.87;100641.25;1749707;82;20983;-33
2021/01/23 00:34:02;;;;;;;36.90;11.25;;;;;;;3.53;89.83;100644.61;1749824;80;21011;-33
2021/01/23 00:36:30;;;;;;;32.53;10.53;;;;;;;3.51;90.07;100630.94;1749743;82;21425;-33
2021/01/23 00:38:58;;;;;;;30.05;10.70;;;;;;;3.54;90.14;100643.77;1749595;82;20899;-33
2021/01/23 00:41:28;;;;;;;63.28;12.25;;;;;;;3.54;90.02;100631.85;1749738;81;20916;-33
2021/01/23 00:43:58;;;;;;;69.05;13.65;;;;;;;3.54;90.10;100627.13;1749676;82;20968;-34
2021/01/23 00:46:26;;;;;;;143.90;17.37;;;;;;;3.53;90.07;100631.38;1749674;82;20927;-34
2021/01/23 00:48:55;;;;;;;155.30;13.05;;;;;;;3.55;89.94;100623.73;1720468;82;22238;-33
2021/01/23 00:51:23;;;;;;;71.20;11.18;;;;;;;3.55;89.94;100623.73;1749776;80;21450;-35
2021/01/23 00:53:51;;;;;;;64.12;12.63;;;;;;;3.55;90.11;100621.17;1718221;82;20951;-35
2021/01/23 00:56:20;;;;;;;145.22;15.30;;;;;;;3.54;90.12;100615.21;1746785;82;20919;-34
2021/01/23 00:58:50;;;;;;;156.90;13.80;;;;;;;3.54;90.12;100610.50;1746804;82;20943;-33
2021/01/23 01:01:18;;;;;;;117.37;12.00;;;;;;;3.52;90.06;100610.90;1746776;82;21207;-32
2021/01/23 01:03:46;;;;;;;113.50;12.45;;;;;;;3.51;90.13;100606.63;1746674;82;20928;-33
2021/01/23 01:06:16;;;;;;;212.05;17.92;;;;;;;3.52;90.17;100608.34;1746197;82;21055;-33
2021/01/23 01:08:46;;;;;;;243.30;18.07;;;;;;;3.50;90.17;100599.78;1746241;82;21003;-32
2021/01/23 01:11:15;;;;;;;152.10;13.93;;;;;;;3.49;90.17;100595.50;1746265;82;21292;-32
2021/01/23 01:13:45;;;;;;;133.65;14.33;;;;;;;3.51;90.35;100594.66;1746217;82;21349;-33
2021/01/23 01:16:13;;;;;;;158.80;14.47;;;;;;;3.53;90.48;100590.86;1746165;82;21018;-33
2021/01/23 01:18:43;;;;;;;255.55;16.42;;;;;;;3.53;90.48;100590.86;1746226;81;21002;-32
2021/01/23 01:21:11;;;;;;;234.30;18.50;;;;;;;3.56;90.34;100594.33;1746064;82;21035;-33
2021/01/23 01:23:42;;;;;;;168.72;17.12;;;;;;;3.56;90.30;100597.30;1746265;82;21043;-32
2021/01/23 01:26:11;;;;;;;141.90;15.55;;;;;;;3.55;90.28;100596.45;1746233;82;21276;-32
2021/01/23 01:28:39;;;;;;;124.15;13.28;;;;;;;3.57;90.23;100597.73;1746248;82;21134;-32
2021/01/23 01:31:07;;;;;;;85.72;11.78;;;;;;;3.58;90.18;100596.48;1746161;82;20885;-35
2021/01/23 01:33:36;;;;;;;42.60;11.15;;;;;;;3.58;90.15;100593.05;1746215;81;20932;-33
2021/01/23 01:36:06;;;;;;;79.70;12.03;;;;;;;3.57;90.12;100598.61;1746203;82;21039;-32
2021/01/23 01:38:35;;;;;;;120.85;13.18;;;;;;;3.62;90.23;100607.60;1746171;82;21198;-33
2021/01/23 01:41:02;;;;;;;159.80;15.15;;;;;;;3.62;90.23;100607.60;1746096;81;21187;-32
2021/01/23 01:43:30;;;;;;;136.50;15.23;;;;;;;3.60;89.98;100605.45;1746248;82;21007;-32
2021/01/23 01:45:59;;;;;;;107.20;12.65;;;;;;;3.57;90.07;100599.02;1746279;82;20924;-33
2021/01/23 01:48:27;;;;;;;55.80;10.72;;;;;;;3.58;90.02;100598.17;1746193;81;20923;-33
2021/01/23 01:50:55;;;;;;;100.07;13.90;;;;;;;3.60;90.03;100602.89;1717272;82;21394;-33
2021/01/23 01:53:23;;;;;;;120.82;13.05;;;;;;;3.58;89.75;100599.45;1743501;81;21118;-33
2021/01/23 01:55:52;;;;;;;134.15;13.05;;;;;;;3.59;90.22;100603.33;1691913;82;20999;-33
2021/01/23 01:58:20;;;;;;;152.32;14.85;;;;;;;3.61;90.12;100599.48;1735930;82;21003;-34
2021/01/23 02:00:48;;;;;;;205.98;17.20;;;;;;;3.62;90.08;100604.20;1735972;82;20964;-32
2021/01/23 02:03:45;;;;;;;140.10;14.47;;;;;;;3.62;90.10;100604.20;1735966;82;21437;-33
2021/01/23 02:06:59;;;;;;;121.90;12.28;;;;;;;3.60;90.13;100606.73;1735876;82;21060;-33
2021/01/23 02:09:52;;;;;;;168.85;14.55;;;;;;;3.63;90.05;100605.48;1735992;82;20964;-33
2021/01/23 02:12:50;;;;;;;74.53;11.03;;;;;;;3.61;90.20;100603.33;1735867;82;21027;-32
2021/01/23 02:15:22;;;;;;;87.33;11.75;;;;;;;3.62;90.18;100596.08;1735675;82;20952;-33
2021/01/23 02:17:58;;;;;;;114.72;10.05;;;;;;;3.65;90.12;100604.23;1735952;82;21562;-33
2021/01/23 02:21:02;;;;;;;129.82;15.03;;;;;;;3.65;90.12;100597.40;1735391;82;20932;-33
2021/01/23 02:23:32;;;;;;;188.97;15.80;;;;;;;3.65;90.13;100597.83;1735920;82;21558;-33
2021/01/23 02:26:09;;;;;;;143.37;12.40;;;;;;;3.64;90.18;100600.80;1735875;82;20923;-33
2021/01/23 02:29:09;;;;;;;202.50;14.55;;;;;;;3.65;90.13;100602.52;1736023;82;21522;-33
2021/01/23 02:31:41;;;;;;;143.13;14.83;;;;;;;3.65;90.19;100606.80;1735815;82;21338;-33
2021/01/23 02:34:11;;;;;;;132.22;12.45;;;;;;;3.66;90.27;100602.95;1735563;82;21538;-33
2021/01/23 02:36:40;;;;;;;223.82;16.12;;;;;;;3.66;90.27;100602.95;1736003;82;21055;-33
2021/01/23 02:39:07;;;;;;;152.87;15.70;;;;;;;3.68;90.11;100608.98;1735839;81;20912;-33
2021/01/23 02:41:36;;;;;;;186.25;16.10;;;;;;;3.66;90.16;100609.36;1735928;82;20916;-33
2021/01/23 02:44:07;;;;;;;156.87;13.18;;;;;;;3.66;90.16;100611.91;1715487;82;21369;-34
2021/01/23 02:46:34;;;;;;;210.57;19.52;;;;;;;3.68;90.19;100619.23;1735968;82;20976;-34
2021/01/23 02:49:04;;;;;;;153.18;14.65;;;;;;;3.70;90.21;100618.82;1735848;82;20980;-33
2021/01/23 02:52:04;;;;;;;320.02;24.18;;;;;;;3.71;90.14;100620.55;1735901;82;20996;-33
2021/01/23 02:55:03;;;;;;;254.20;19.50;;;;;;;3.71;90.13;100617.10;1744378;82;20979;-34
2021/01/23 02:57:31;;;;;;;121.33;13.05;;;;;;;3.71;90.11;100614.55;1749897;82;21368;-33
2021/01/23 03:00:07;;;;;;;155.50;15.83;;;;;;;3.71;90.12;100615.42;1749811;82;20900;-33
2021/01/23 03:02:38;;;;;;;241.82;18.82;;;;;;;3.72;90.05;100611.14;1749840;82;20928;-33
2021/01/23 03:05:07;;;;;;;189.55;17.37;;;;;;;3.71;90.07;100614.55;1749824;82;20928;-33
2021/01/23 03:07:35;;;;;;;217.68;17.92;;;;;;;3.69;90.07;100606.86;1749909;82;20880;-34
2021/01/23 03:10:09;;;;;;;165.52;15.88;;;;;;;3.69;89.95;100617.51;1722767;82;21372;-33
2021/01/23 03:12:37;;;;;;;146.87;15.10;;;;;;;3.69;89.93;100611.11;1749939;82;21475;-33
2021/01/23 03:15:07;;;;;;;79.00;13.98;;;;;;;3.67;89.99;100605.98;1749842;82;20892;-33
2021/01/23 03:17:35;;;;;;;46.92;11.05;;;;;;;3.69;90.10;100595.75;1749931;82;21006;-31
2021/01/23 03:20:05;;;;;;;58.25;12.30;;;;;;;3.70;90.12;100591.06;1749945;82;21514;-32
2021/01/23 03:22:34;;;;;;;70.08;12.82;;;;;;;3.71;90.07;100587.25;1750041;82;22224;-33
2021/01/23 03:25:02;;;;;;;56.08;13.05;;;;;;;3.73;90.08;100583.41;1749671;82;20998;-34
2021/01/23 03:27:30;;;;;;;54.15;12.18;;;;;;;3.72;90.01;100577.85;1749840;82;21030;-33
2021/01/23 03:29:59;;;;;;;166.65;16.27;;;;;;;3.73;90.43;100585.57;1749808;82;20892;-33
2021/01/23 03:32:27;;;;;;;80.12;13.15;;;;;;;3.73;90.43;100585.57;1749970;82;21395;-33
2021/01/23 03:34:56;;;;;;;66.15;13.75;;;;;;;3.75;90.16;100577.88;1749817;82;22119;-33
2021/01/23 03:37:26;;;;;;;146.32;15.58;;;;;;;3.74;90.15;100573.61;1749851;82;20999;-33
2021/01/23 03:39:54;;;;;;;87.05;13.45;;;;;;;3.74;90.09;100573.20;1749880;82;20995;-33
2021/01/23 03:42:22;;;;;;;86.30;13.05;;;;;;;3.76;90.12;100578.76;1749763;82;20975;-34
2021/01/23 03:44:50;;;;;;;160.72;17.37;;;;;;;3.75;90.06;100561.24;1749931;82;21026;-33
2021/01/23 03:47:19;;;;;;;77.35;14.70;;;;;;;3.75;90.12;100562.52;1749902;82;21202;-33
2021/01/23 03:49:47;;;;;;;77.03;13.45;;;;;;;3.74;90.08;100565.52;1749814;82;21343;-34
2021/01/23 03:52:15;;;;;;;56.77;13.88;;;;;;;3.71;90.38;100557.81;1749782;82;20995;-34
2021/01/23 03:54:45;;;;;;;32.38;11.73;;;;;;;3.71;90.38;100557.81;1749699;82;20967;-34
2021/01/23 03:57:14;;;;;;;30.65;12.20;;;;;;;3.71;89.99;100549.25;1749934;82;20971;-33
2021/01/23 03:59:42;;;;;;;64.40;13.43;;;;;;;3.68;89.95;100552.66;1749802;82;21046;-34
2021/01/23 04:02:11;;;;;;;105.20;16.55;;;;;;;3.68;90.04;100554.34;1749746;82;21243;-33
2021/01/23 04:04:39;;;;;;;117.55;16.25;;;;;;;3.67;90.10;100562.86;1749950;82;20927;-34
2021/01/23 04:07:07;;;;;;;229.90;21.57;;;;;;;3.64;90.19;100559.84;1749741;82;21019;-33
2021/01/23 04:09:36;;;;;;;148.93;19.02;;;;;;;3.65;90.22;100555.59;1749877;82;20928;-33
2021/01/23 04:12:07;;;;;;;57.08;15.95;;;;;;;3.67;90.14;100549.66;1749838;82;21204;-33
2021/01/23 04:14:34;;;;;;;60.65;17.10;;;;;;;3.67;90.18;100544.53;1749786;82;21539;-33
2021/01/23 04:17:03;;;;;;;57.08;16.52;;;;;;;3.66;90.24;100559.43;1749808;82;20947;-33
2021/01/23 04:19:32;;;;;;;70.60;16.17;;;;;;;3.65;90.39;100558.99;1749767;80;20979;-32
2021/01/23 04:22:01;;;;;;;58.17;17.40;;;;;;;3.67;90.34;100554.78;1749796;82;20919;-32
2021/01/23 04:24:30;;;;;;;65.42;18.20;;;;;;;3.67;90.39;100554.78;1749821;82;21366;-32
2021/01/23 04:26:59;;;;;;;44.83;16.65;;;;;;;3.67;90.40;100553.91;1749861;82;21098;-33
2021/01/23 04:29:26;;;;;;;43.20;17.57;;;;;;;3.66;90.36;100554.75;1749834;82;20932;-32
2021/01/23 04:31:54;;;;;;;58.55;17.98;;;;;;;3.65;90.34;100550.47;1749747;82;21011;-33
2021/01/23 04:34:22;;;;;;;58.23;18.67;;;;;;;3.64;90.39;100552.16;1749896;82;20975;-33
2021/01/23 04:36:51;;;;;;;62.70;20.75;;;;;;;3.65;90.40;100554.31;1749854;82;22510;-34
2021/01/23 04:39:19;;;;;;;45.40;18.62;;;;;;;3.63;90.43;100545.31;1749735;82;20987;-34
2021/01/23 04:41:47;;;;;;;48.02;17.12;;;;;;;3.62;90.49;100546.16;1750070;82;21538;-34
2021/01/23 04:44:15;;;;;;;45.73;17.98;;;;;;;3.63;90.45;100551.72;1749901;82;20999;-34
2021/01/23 04:46:44;;;;;;;48.55;20.05;;;;;;;3.62;90.47;100541.03;1750014;82;20979;-35
2021/01/23 04:49:12;;;;;;;52.15;21.27;;;;;;;3.57;90.56;100541.01;1722621;82;21381;-34
2021/01/23 04:51:40;;;;;;;37.90;17.32;;;;;;;3.56;90.59;100539.29;1749962;81;21026;-34
2021/01/23 04:54:09;;;;;;;30.05;17.10;;;;;;;3.57;90.71;100538.85;1748060;81;21051;-34
2021/01/23 04:56:37;;;;;;;38.02;16.95;;;;;;;3.57;90.71;100538.85;1736007;82;20905;-34
2021/01/23 04:59:04;;;;;;;33.92;16.32;;;;;;;3.54;90.87;100524.74;1735897;82;20996;-33
2021/01/23 05:01:32;;;;;;;29.95;15.98;;;;;;;3.55;90.96;100523.90;1735964;82;21361;-33
2021/01/23 05:04:02;;;;;;;37.40;17.37;;;;;;;3.56;90.95;100523.05;1735861;82;21023;-33
2021/01/23 05:06:30;;;;;;;47.70;19.85;;;;;;;3.53;91.04;100517.91;1735968;82;21419;-33
2021/01/23 05:09:00;;;;;;;45.38;20.12;;;;;;;3.51;91.08;100533.67;1715232;82;21023;-33
2021/01/23 05:11:46;;;;;;;50.73;18.35;;;;;;;3.50;91.11;100531.52;1735995;81;20916;-33
2021/01/23 05:14:16;;;;;;;67.85;18.10;;;;;;;3.51;91.17;100537.07;1735965;82;21778;-33
2021/01/23 05:16:45;;;;;;;81.40;21.30;;;;;;;3.49;91.25;100534.92;1735950;82;20999;-33
2021/01/23 05:19:16;;;;;;;58.50;20.37;;;;;;;3.47;91.37;100542.16;1735926;82;21026;-33
2021/01/23 05:22:00;;;;;;;52.03;21.48;;;;;;;3.47;91.33;100536.59;1735855;81;21039;-32
2021/01/23 05:24:28;;;;;;;47.58;21.27;;;;;;;3.47;91.27;100539.16;1736086;82;20924;-33
2021/01/23 05:26:57;;;;;;;50.60;21.73;;;;;;;3.45;91.22;100542.13;1735949;82;22240;-32
2021/01/23 05:29:25;;;;;;;93.58;24.85;;;;;;;3.43;90.93;100561.72;1735870;82;21053;-34
2021/01/23 05:31:58;;;;;;;79.80;21.23;;;;;;;3.43;90.93;100561.72;1735925;82;20983;-33
2021/01/23 05:34:31;;;;;;;50.67;22.17;;;;;;;3.41;91.36;100574.52;1731124;82;20968;-34
2021/01/23 05:37:00;;;;;;;79.75;24.05;;;;;;;3.37;91.28;100575.29;1735911;82;20912;-34
2021/01/23 05:39:48;;;;;;;96.70;24.80;;;;;;;3.35;91.38;100579.53;1735951;82;22725;-35
2021/01/23 05:42:20;;;;;;;105.05;24.43;;;;;;;3.37;91.52;100579.56;1735849;82;21083;-34
2021/01/23 05:45:09;;;;;;;176.65;31.05;;;;;;;3.36;91.46;100585.09;1735969;82;20932;-33
2021/01/23 05:47:38;;;;;;;103.97;32.40;;;;;;;3.35;91.52;100585.09;1735922;82;21629;-35
2021/01/23 05:50:09;;;;;;;67.75;26.27;;;;;;;3.31;91.67;100577.78;1735897;82;20904;-33
2021/01/23 05:52:37;;;;;;;51.58;25.88;;;;;;;3.32;91.78;100583.33;1735915;82;21478;-34
2021/01/23 05:55:06;;;;;;;46.73;25.95;;;;;;;3.33;91.77;100583.77;1740868;81;21038;-34
2021/01/23 05:57:34;;;;;;;45.78;24.50;;;;;;;3.33;91.84;100581.65;1749998;82;21027;-32
2021/01/23 06:00:04;;;;;;;48.92;26.42;;;;;;;3.32;91.83;100582.48;1749869;82;20971;-34
2021/01/23 06:02:33;;;;;;;49.73;24.57;;;;;;;3.33;92.03;100591.89;1749863;82;20996;-34
2021/01/23 06:05:01;;;;;;;41.63;22.60;;;;;;;3.33;92.06;100588.89;1698996;82;21377;-33
2021/01/23 06:07:46;;;;;;;45.65;24.90;;;;;;;3.34;92.05;100588.05;1722883;82;20979;-34
2021/01/23 06:10:28;;;;;;;53.15;26.33;;;;;;;3.33;92.11;100591.45;1749834;82;21723;-33
2021/01/23 06:12:57;;;;;;;54.18;26.68;;;;;;;3.33;92.16;100594.44;1749856;82;20951;-33
2021/01/23 06:15:38;;;;;;;46.68;24.40;;;;;;;3.33;92.08;100585.48;1749896;82;20991;-33
2021/01/23 06:18:28;;;;;;;47.83;23.42;;;;;;;3.33;92.06;100577.38;1749871;82;21251;-35
2021/01/23 06:21:02;;;;;;;39.83;22.22;;;;;;;3.33;92.06;100577.38;1749818;82;21018;-33
2021/01/23 06:23:51;;;;;;;44.48;23.52;;;;;;;3.35;92.19;100574.84;1749931;82;20888;-33
2021/01/23 06:26:19;;;;;;;38.53;22.32;;;;;;;3.35;92.24;100573.13;1749914;82;20920;-34
2021/01/23 06:28:48;;;;;;;51.20;22.67;;;;;;;3.39;92.24;100580.45;1750013;82;21010;-33
2021/01/23 06:31:32;;;;;;;50.45;22.00;;;;;;;3.40;92.28;100577.88;1749932;82;21383;-33
2021/01/23 06:34:01;;;;;;;44.90;21.68;;;;;;;3.41;92.27;100580.92;1749783;82;20998;-33
2021/01/23 06:36:30;;;;;;;46.90;23.22;;;;;;;3.40;92.24;100580.88;1749926;82;20944;-34
2021/01/23 06:39:09;;;;;;;47.88;20.52;;;;;;;3.39;92.33;100575.33;1749769;82;20999;-34
2021/01/23 06:41:39;;;;;;;38.45;19.87;;;;;;;3.41;92.48;100573.23;1749854;82;20895;-33
2021/01/23 06:44:17;;;;;;;42.65;19.52;;;;;;;3.43;92.59;100577.95;1749752;82;22595;-34
2021/01/23 06:46:53;;;;;;;41.98;19.50;;;;;;;3.47;92.62;100574.99;1749823;82;21008;-32
2021/01/23 06:49:21;;;;;;;35.63;18.32;;;;;;;3.50;92.66;100578.03;1749936;82;21007;-32
2021/01/23 06:51:49;;;;;;;46.70;18.57;;;;;;;3.55;92.68;100581.50;1749871;82;20916;-32
2021/01/23 06:54:21;;;;;;;35.10;17.80;;;;;;;3.62;92.70;100585.00;1749896;81;21050;-33
2021/01/23 06:56:52;;;;;;;48.60;20.62;;;;;;;3.65;92.63;100576.91;1737181;81;21388;-32
2021/01/23 06:59:27;;;;;;;38.33;18.90;;;;;;;3.68;92.65;100582.09;1735860;81;21031;-33
2021/01/23 07:02:00;;;;;;;45.95;19.30;;;;;;;3.72;92.58;100581.29;1735877;82;20936;-34
2021/01/23 07:04:31;;;;;;;44.45;18.62;;;;;;;3.74;92.46;100582.16;1735962;82;20905;-33
2021/01/23 07:06:59;;;;;;;41.58;19.80;;;;;;;3.73;92.48;100581.73;1735845;82;20916;-34
2021/01/23 07:09:53;;;;;;;52.25;19.77;;;;;;;3.70;92.48;100576.98;1735880;82;22436;-32
2021/01/23 07:12:46;;;;;;;50.52;19.07;;;;;;;3.70;92.48;100576.98;1735822;82;21055;-32
2021/01/23 07:15:30;;;;;;;46.30;18.70;;;;;;;3.69;92.41;100573.58;1735892;82;21559;-32
2021/01/23 07:18:13;;;;;;;27.55;14.80;;;;;;;3.69;92.40;100558.21;1735784;82;20996;-34
2021/01/23 07:20:41;;;;;;;34.38;16.93;;;;;;;3.67;92.45;100553.91;1735845;82;21023;-33
2021/01/23 07:23:10;;;;;;;31.62;16.40;;;;;;;3.66;92.52;100553.03;1735917;82;22515;-32
2021/01/23 07:25:38;;;;;;;36.00;17.73;;;;;;;3.68;92.49;100562.89;1687464;82;20944;-34
2021/01/23 07:28:06;;;;;;;45.10;17.42;;;;;;;3.69;92.49;100556.94;1735788;82;20924;-32
2021/01/23 07:30:34;;;;;;;40.17;16.90;;;;;;;3.72;92.54;100563.37;1735939;82;20976;-33
2021/01/23 07:33:03;;;;;;;36.40;16.87;;;;;;;3.77;92.57;100565.11;1735850;82;20987;-32
2021/01/23 07:35:38;;;;;;;33.83;16.85;;;;;;;3.80;92.57;100562.18;1735806;82;21312;-35
2021/01/23 07:38:07;;;;;;;36.60;16.33;;;;;;;3.87;92.42;100557.95;1736118;82;21427;-32
2021/01/23 07:40:36;;;;;;;37.00;16.77;;;;;;;3.91;92.26;100560.14;1691725;82;21691;-34
2021/01/23 07:43:05;;;;;;;44.13;17.85;;;;;;;3.95;92.20;100561.48;1735782;82;21011;-34
2021/01/23 07:45:33;;;;;;;101.00;20.82;;;;;;;3.98;92.16;100562.79;1735847;82;20995;-32
2021/01/23 07:48:06;;;;;;;49.48;18.60;;;;;;;4.04;92.04;100568.38;1735893;82;21275;-32
2021/01/23 07:50:43;;;;;;;65.72;18.37;;;;;;;4.08;91.85;100560.31;1735719;82;20984;-33
2021/01/23 07:53:23;;;;;;;110.30;21.77;;;;;;;4.09;91.62;100561.63;1735833;82;21042;-32
2021/01/23 07:55:54;;;;;;;77.45;18.80;;;;;;;4.08;91.54;100561.59;1740722;81;21386;-33
2021/01/23 07:58:21;;;;;;;104.78;19.10;;;;;;;4.07;91.16;100553.47;1749775;82;21011;-32
2021/01/23 08:00:49;;;;;;;111.85;22.00;;;;;;;4.04;91.26;100559.41;1749881;82;21231;-32
2021/01/23 08:03:35;;;;;;;104.17;19.25;;;;;;;4.04;91.26;100559.41;1749771;82;20987;-32
2021/01/23 08:06:02;;;;;;;105.65;20.88;;;;;;;4.06;91.39;100560.31;1749745;82;21011;-32
2021/01/23 08:08:34;;;;;;;93.60;21.07;;;;;;;4.08;91.34;100557.75;1749828;82;20912;-33
2021/01/23 08:11:03;;;;;;;75.30;17.82;;;;;;;4.12;91.25;100559.49;1749884;82;21509;-32
2021/01/23 08:13:34;;;;;;;39.70;15.63;;;;;;;4.15;91.07;100567.20;1749897;82;21273;-32
2021/01/23 08:16:12;;;;;;;70.28;16.75;;;;;;;4.17;90.91;100568.11;1749820;82;21098;-32
2021/01/23 08:18:43;;;;;;;72.67;19.57;;;;;;;4.22;90.87;100565.56;1749976;82;20967;-32
2021/01/23 08:21:20;;;;;;;49.70;15.50;;;;;;;4.22;90.87;100565.56;1749875;82;20912;-33
2021/01/23 08:23:48;;;;;;;59.15;16.40;;;;;;;4.35;90.34;100569.11;1749968;82;21042;-32
2021/01/23 08:26:18;;;;;;;63.08;14.65;;;;;;;4.35;90.34;100569.11;1749969;82;21368;-32
2021/01/23 08:28:48;;;;;;;46.45;16.05;;;;;;;4.40;90.40;100562.31;1749955;82;20995;-32
2021/01/23 08:31:20;;;;;;;43.38;15.60;;;;;;;4.47;90.26;100567.95;1749962;82;20983;-32
2021/01/23 08:33:57;;;;;;;32.67;14.20;;;;;;;4.56;90.02;100568.02;1749918;82;20923;-33
2021/01/23 08:36:27;;;;;;;38.73;13.90;;;;;;;4.64;89.70;100565.92;1750011;82;20935;-33
2021/01/23 08:39:02;;;;;;;31.25;13.68;;;;;;;4.69;89.51;100568.13;1749931;82;22127;-33
2021/01/23 08:41:33;;;;;;;40.52;15.20;;;;;;;4.76;89.26;100566.03;1750080;82;20951;-33
2021/01/23 08:44:02;;;;;;;50.28;14.55;;;;;;;4.79;88.77;100563.89;1749893;82;21007;-32
2021/01/23 08:46:31;;;;;;;52.30;14.03;;;;;;;4.82;88.78;100562.66;1750114;82;21419;-33
2021/01/23 08:49:00;;;;;;;40.75;13.00;;;;;;;4.88;88.57;100560.97;1749955;82;20923;-33
2021/01/23 08:51:29;;;;;;;29.72;12.88;;;;;;;4.96;88.26;100569.17;1749924;81;21255;-33
2021/01/23 08:53:57;;;;;;;23.52;13.40;;;;;;;4.96;87.90;100572.58;1749808;82;20999;-33
2021/01/23 08:56:25;;;;;;;29.65;13.70;;;;;;;4.96;87.86;100571.30;1749885;81;20940;-33
2021/01/23 08:58:53;;;;;;;21.33;12.75;;;;;;;4.97;87.68;100570.44;1749808;81;20944;-33
2021/01/23 09:01:21;;;;;;;27.80;12.65;;;;;;;4.96;87.38;100564.03;1750028;82;21007;-33
2021/01/23 09:03:49;;;;;;;47.40;14.23;;;;;;;4.95;87.44;100564.89;1750016;82;21253;-33
2021/01/23 09:06:16;;;;;;;48.17;13.93;;;;;;;4.97;87.51;100560.18;1749852;82;21014;-33
2021/01/23 09:08:45;;;;;;;42.38;12.98;;;;;;;5.04;87.45;100561.92;1749978;82;20939;-32
2021/01/23 09:11:13;;;;;;;53.48;14.13;;;;;;;5.12;87.30;100549.14;1749894;82;21009;-33
2021/01/23 09:13:42;;;;;;;28.30;13.22;;;;;;;5.22;87.09;100553.91;1749916;82;20999;-34
2021/01/23 09:16:10;;;;;;;22.17;13.50;;;;;;;5.30;86.70;100549.69;1749955;82;21342;-33
2021/01/23 09:18:39;;;;;;;41.48;16.62;;;;;;;5.40;86.54;100554.41;1749934;82;20947;-33
2021/01/23 09:21:07;;;;;;;52.58;15.05;;;;;;;5.49;86.47;100553.60;1749902;82;20919;-33
2021/01/23 09:23:35;;;;;;;60.15;14.18;;;;;;;5.61;86.13;100556.23;1749856;82;20979;-33
2021/01/23 09:26:03;;;;;;;68.40;13.18;;;;;;;5.74;85.89;100553.69;1749951;82;20939;-34
2021/01/23 09:28:31;;;;;;;30.85;11.60;;;;;;;5.87;85.78;100552.02;1750065;82;22370;-34
2021/01/23 09:31:01;;;;;;;49.73;13.15;;;;;;;5.97;84.98;100546.48;1749775;82;20976;-35
2021/01/23 09:33:30;;;;;;;50.95;12.28;;;;;;;6.09;84.65;100543.10;1749958;82;20979;-33
2021/01/23 09:35:58;;;;;;;42.17;12.35;;;;;;;6.17;83.95;100540.10;1749839;82;20884;-32
2021/01/23 09:38:26;;;;;;;32.20;13.13;;;;;;;6.17;83.21;100541.39;1749911;82;21007;-33
2021/01/23 09:40:54;;;;;;;26.70;12.68;;;;;;;6.20;82.90;100534.99;1749996;82;21219;-32
2021/01/23 09:43:22;;;;;;;43.63;13.93;;;;;;;6.25;82.99;100538.83;1749805;82;20999;-33
2021/01/23 09:45:50;;;;;;;27.85;13.35;;;;;;;6.33;82.61;100543.13;1749997;82;20917;-34
2021/01/23 09:48:20;;;;;;;30.50;12.82;;;;;;;6.36;81.99;100544.86;1749928;82;21466;-35
2021/01/23 09:50:48;;;;;;;55.98;14.80;;;;;;;6.35;82.02;100547.00;1749985;82;21507;-33
2021/01/23 09:53:16;;;;;;;36.40;14.15;;;;;;;6.36;81.99;100543.56;1749929;82;22334;-37
2021/01/23 09:55:44;;;;;;;42.93;14.00;;;;;;;6.37;81.90;100542.71;1749655;82;21034;-33
2021/01/23 09:58:13;;;;;;;31.73;12.33;;;;;;;6.40;81.74;100534.99;1736366;81;21004;-34
2021/01/23 10:00:41;;;;;;;42.23;13.78;;;;;;;6.42;81.55;100524.28;1735758;82;21054;-33
2021/01/23 10:03:10;;;;;;;22.75;13.78;;;;;;;6.40;81.70;100525.13;1735925;82;21055;-33
2021/01/23 10:05:38;;;;;;;23.87;12.80;;;;;;;6.42;81.61;100528.13;1735877;82;21390;-35
2021/01/23 10:08:06;;;;;;;20.23;12.85;;;;;;;6.31;81.58;100525.56;1735769;82;21050;-34
2021/01/23 10:10:34;;;;;;;21.85;12.98;;;;;;;6.30;81.62;100525.55;1735907;82;21011;-33
2021/01/23 10:13:02;;;;;;;22.40;13.72;;;;;;;6.24;81.79;100530.28;1735814;82;21019;-33
2021/01/23 10:15:32;;;;;;;27.40;16.37;;;;;;;6.15;81.93;100523.83;1735869;82;20941;-33
2021/01/23 10:18:02;;;;;;;24.52;15.30;;;;;;;6.08;82.32;100519.13;1735907;81;21342;-33
2021/01/23 10:20:30;;;;;;;32.33;15.83;;;;;;;6.11;82.46;100518.25;1735868;82;20952;-33
2021/01/23 10:22:59;;;;;;;28.10;14.30;;;;;;;6.09;82.42;100524.70;1735908;82;20952;-33
2021/01/23 10:25:29;;;;;;;30.68;15.75;;;;;;;6.02;82.53;100522.54;1735923;82;20946;-34
2021/01/23 10:27:57;;;;;;;28.10;15.08;;;;;;;5.96;82.75;100518.65;1735825;82;20920;-34
2021/01/23 10:30:25;;;;;;;23.00;13.55;;;;;;;5.92;82.74;100517.34;1735779;82;21203;-32
2021/01/23 10:32:55;;;;;;;26.07;14.38;;;;;;;5.83;82.90;100522.03;1735725;82;21023;-34
2021/01/23 10:35:23;;;;;;;30.45;14.03;;;;;;;5.79;83.21;100524.17;1735884;82;20999;-36
2021/01/23 10:37:51;;;;;;;26.97;13.48;;;;;;;5.72;83.42;100516.88;1735757;82;20932;-34
2021/01/23 10:40:20;;;;;;;23.10;13.78;;;;;;;5.66;83.57;100507.87;1735938;82;20948;-34
2021/01/23 10:42:48;;;;;;;27.85;15.13;;;;;;;5.61;83.98;100509.13;1735957;82;22156;-36
2021/01/23 10:45:16;;;;;;;27.52;15.10;;;;;;;5.56;84.22;100515.97;1735673;81;21004;-36
2021/01/23 10:47:44;;;;;;;24.87;15.00;;;;;;;5.53;84.52;100513.39;1735963;82;21692;-34
2021/01/23 10:50:13;;;;;;;33.60;13.48;;;;;;;5.52;84.81;100507.83;1735760;82;20976;-33
2021/01/23 10:52:41;;;;;;;25.77;15.32;;;;;;;5.50;84.99;100505.69;1735868;82;20962;-33
2021/01/23 10:55:11;;;;;;;27.37;16.82;;;;;;;5.54;85.06;100504.84;1735791;82;21196;-34
2021/01/23 10:57:39;;;;;;;26.37;15.65;;;;;;;5.59;85.15;100506.58;1735754;81;21444;-33
2021/01/23 11:00:08;;;;;;;31.20;15.40;;;;;;;5.63;85.15;100518.14;1735812;82;20920;-33
2021/01/23 11:02:39;;;;;;;25.97;14.23;;;;;;;5.57;85.32;100510.86;1735769;82;20877;-34
2021/01/23 11:05:09;;;;;;;30.95;14.40;;;;;;;5.53;85.55;100512.11;1735920;82;20932;-33
2021/01/23 11:07:39;;;;;;;27.50;15.75;;;;;;;5.48;85.79;100509.96;1733429;82;21357;-34
2021/01/23 11:10:10;;;;;;;31.52;15.98;;;;;;;5.49;85.97;100506.09;1735678;81;20940;-32
2021/01/23 11:12:38;;;;;;;41.05;16.02;;;;;;;5.54;86.02;100495.85;1735879;82;20944;-33
2021/01/23 11:15:08;;;;;;;42.45;15.95;;;;;;;5.58;86.03;100496.28;1735733;82;20948;-33
2021/01/23 11:17:38;;;;;;;77.50;18.40;;;;;;;5.61;85.98;100498.86;1735870;82;20996;-33
2021/01/23 11:20:08;;;;;;;59.13;18.87;;;;;;;5.64;86.00;100501.43;1735862;81;21377;-33
2021/01/23 11:22:35;;;;;;;51.53;19.48;;;;;;;5.65;85.93;100497.17;1735826;82;21007;-34
2021/01/23 11:25:05;;;;;;;44.50;20.45;;;;;;;5.66;85.96;100498.44;1735757;82;20975;-33
2021/01/23 11:27:33;;;;;;;48.50;19.00;;;;;;;5.68;85.89;100501.87;1735758;82;21011;-34
2021/01/23 11:30:02;;;;;;;54.88;19.67;;;;;;;5.69;85.97;100500.17;1735859;82;21027;-33
2021/01/23 11:32:32;;;;;;;46.00;19.87;;;;;;;5.68;85.98;100498.45;1735769;82;21530;-33